createdAt,value
2022-12-12T09:25:16.864Z,98296.81
2022-12-12T09:26:19.086Z,98299.12
2022-12-12T09:27:21.127Z,98294.34
2022-12-12T09:28:25.791Z,98296.64
2022-12-12T09:29:27.985Z,98303.14
2022-12-12T09:30:30.307Z,98307.09
2022-12-12T09:31:33.037Z,98300.38
2022-12-12T09:32:37.528Z,98304.34
2022-12-12T09:33:39.804Z,98304.07
2022-12-12T09:34:41.881Z,98304.66
2022-12-12T09:35:43.889Z,98309.86
2022-12-12T09:36:47.317Z,98303.55
2022-12-12T09:37:50.515Z,98310.45
2022-12-12T09:38:53.434Z,98316.36
2022-12-12T09:39:55.649Z,98314.27
2022-12-12T09:41:03.827Z,98313.03
2022-12-12T09:42:18.907Z,98315.28
2022-12-12T09:44:36.339Z,98324.52
2022-12-12T09:45:38.758Z,98318.30
2022-12-12T09:46:48.205Z,98324.09
2022-12-12T09:47:52.829Z,98326.34
2022-12-12T09:48:59.381Z,98326.07
2022-12-12T09:50:04.371Z,98340.02
2022-12-12T09:51:06.782Z,98335.23
2022-12-12T09:52:12.161Z,98342.86
2022-12-12T09:53:16.529Z,98343.55
2022-12-12T09:54:20.807Z,98351.15
2022-12-12T09:55:32.926Z,98346.53
2022-12-12T09:57:53.778Z,98353.45
2022-12-12T09:59:08.836Z,98373.95
2022-12-12T10:00:14.108Z,98361.59
2022-12-12T10:01:45.691Z,98369.75
2022-12-12T10:02:57.619Z,98358.33
2022-12-12T14:04:33.875Z,98582.72
2022-12-12T14:05:39.248Z,98587.70
2022-12-12T14:06:42.758Z,98594.95
2022-12-12T14:07:49.172Z,98580.30
2022-12-12T14:08:51.476Z,98587.53
2022-12-12T14:09:55.804Z,98587.65
2022-12-12T14:11:00.635Z,98589.13
2022-12-12T14:12:08.055Z,98586.98
2022-12-12T14:13:28.117Z,98590.87
2022-12-12T14:14:30.268Z,98587.41
2022-12-12T14:15:34.489Z,98584.66
2022-12-12T14:16:36.933Z,98586.04
2022-12-12T14:17:42.669Z,98581.64
2022-12-12T14:18:54.114Z,98585.53
2022-12-12T14:19:57.091Z,98594.80
2022-12-12T14:21:04.919Z,98593.34
2022-12-12T14:22:11.068Z,98590.20
2022-12-12T14:23:23.398Z,98600.36
2022-12-12T14:24:36.005Z,98590.73
2022-12-12T14:25:41.447Z,98594.30
2022-12-12T14:26:46.396Z,98595.40
2022-12-12T14:27:52.651Z,98599.65
2022-12-12T14:29:19.928Z,98588.87
2022-12-12T14:31:39.134Z,98606.59
2022-12-12T14:33:01.948Z,98602.47
2022-12-12T14:34:14.009Z,98603.33
2022-12-12T14:37:09.186Z,98591.80
2022-12-12T14:38:27.639Z,98593.13
2022-12-12T14:39:35.815Z,98596.42
2022-12-12T14:40:40.727Z,98591.09
2022-12-12T14:41:43.707Z,98589.39
2022-12-12T14:43:20.976Z,98582.02
2022-12-12T14:44:36.497Z,98577.52
2022-12-12T14:45:27.714Z,98584.30
2022-12-12T14:46:31.859Z,98586.83
2022-12-12T14:47:34.219Z,98582.08
2022-12-12T14:48:38.494Z,98601.84
2022-12-12T14:49:41.523Z,98588.73
2022-12-12T14:51:05.860Z,98586.78
2022-12-12T14:52:10.189Z,98594.59
2022-12-12T14:53:19.547Z,98576.88
2022-12-12T14:54:24.634Z,98576.88
2022-12-12T14:55:31.194Z,98605.25
2022-12-12T14:56:41.018Z,98595.94
2022-12-12T14:57:44.420Z,98599.12
2022-12-12T14:59:00.661Z,98596.00
2022-12-12T15:00:06.771Z,98605.70
2022-12-12T15:01:10.164Z,98596.72
2022-12-12T15:02:27.595Z,98596.98
2022-12-12T15:04:50.247Z,98583.47
2022-12-12T15:06:14.231Z,98587.55
2022-12-12T15:07:28.099Z,98597.87
2022-12-12T15:08:31.358Z,98590.95
2022-12-12T15:09:35.071Z,98594.80
2022-12-12T15:10:38.236Z,98594.80
2022-12-12T15:11:40.332Z,98593.58
2022-12-12T15:12:44.012Z,98600.82
2022-12-12T15:13:56.731Z,98606.15
2022-12-12T15:14:59.788Z,98613.06
2022-12-12T15:16:02.057Z,98607.49
2022-12-12T15:17:06.189Z,98609.32
2022-12-12T15:18:08.368Z,98610.40
2022-12-12T15:20:29.239Z,98616.98
2022-12-12T15:21:32.796Z,98626.08
2022-12-12T15:22:36.551Z,98620.02
2022-12-12T15:23:40.440Z,98628.16
2022-12-12T15:24:43.628Z,98628.30
2022-12-12T15:25:50.595Z,98627.70
2022-12-12T15:26:55.690Z,98624.30
2022-12-12T15:27:57.815Z,98632.55
2022-12-12T15:29:00.376Z,98629.17
2022-12-12T15:30:05.697Z,98626.03
2022-12-12T15:31:10.559Z,98629.94
2022-12-12T15:32:18.706Z,98620.59
2022-12-12T15:33:24.200Z,98626.30
2022-12-12T15:34:33.782Z,98629.30
2022-12-12T15:35:37.608Z,98624.44
2022-12-12T15:36:40.767Z,98630.14
2022-12-12T15:37:43.113Z,98629.63
2022-12-12T15:38:45.717Z,98624.91
2022-12-12T15:40:11.286Z,98627.19
2022-12-12T15:41:14.041Z,98627.67
2022-12-12T15:42:16.227Z,98626.31
2022-12-12T15:43:21.480Z,98618.91
2022-12-12T15:44:23.659Z,98635.51
2022-12-12T15:45:37.640Z,98624.57
2022-12-12T15:46:39.895Z,98636.83
2022-12-12T15:47:42.146Z,98631.22
2022-12-12T15:48:46.807Z,98630.89
2022-12-12T15:49:51.124Z,98637.81
2022-12-12T15:51:02.829Z,98646.53
2022-12-12T15:52:14.362Z,98647.14
2022-12-12T15:53:26.685Z,98656.72
2022-12-12T15:54:28.903Z,98652.09
2022-12-12T15:55:31.072Z,98656.33
2022-12-12T15:56:33.763Z,98656.07
2022-12-12T15:57:47.927Z,98658.61
2022-12-12T15:59:06.844Z,98658.34
2022-12-12T16:00:13.338Z,98656.41
2022-12-12T16:01:20.269Z,98660.66
2022-12-12T16:02:31.382Z,98659.69
2022-12-12T16:03:33.676Z,98661.36
2022-12-12T16:04:36.249Z,98672.78
2022-12-12T16:05:40.755Z,98670.81
2022-12-12T16:06:44.764Z,98666.34
2022-12-12T16:07:47.108Z,98674.23
2022-12-12T16:08:56.137Z,98676.64
2022-12-12T16:09:59.901Z,98677.34
2022-12-12T16:11:04.916Z,98680.75
2022-12-12T16:12:08.034Z,98679.78
2022-12-12T16:13:25.114Z,98680.48
2022-12-12T16:14:41.633Z,98674.17
2022-12-12T16:15:43.796Z,98669.66
2022-12-12T16:16:46.018Z,98676.58
2022-12-12T16:18:10.628Z,98676.58
2022-12-12T16:19:31.590Z,98681.79
2022-12-12T16:20:34.737Z,98682.52
2022-12-12T16:21:40.702Z,98691.38
2022-12-12T16:22:45.629Z,98688.70
2022-12-12T16:23:47.964Z,98690.41
2022-12-12T16:26:08.092Z,98692.05
2022-12-12T16:27:10.614Z,98687.61
2022-12-12T16:28:25.782Z,98696.33
2022-12-12T16:29:30.189Z,98691.85
2022-12-12T16:30:33.620Z,98700.58
2022-12-12T16:31:36.285Z,98699.60
2022-12-12T16:32:38.954Z,98697.77
2022-12-12T16:33:40.921Z,98698.64
2022-12-12T16:34:43.237Z,98705.55
2022-12-12T16:35:46.223Z,98703.72
2022-12-12T16:36:48.391Z,98691.19
2022-12-12T16:37:51.140Z,98687.54
2022-12-12T16:38:53.296Z,98694.45
2022-12-12T16:39:55.408Z,98686.44
2022-12-12T16:40:59.661Z,98687.14
2022-12-12T16:42:05.448Z,98701.38
2022-12-12T16:43:12.947Z,98694.19
2022-12-12T16:44:16.602Z,98684.16
2022-12-12T16:45:19.258Z,98696.73
2022-12-12T16:46:22.807Z,98699.30
2022-12-12T16:47:25.495Z,98696.63
2022-12-12T16:48:32.865Z,98695.66
2022-12-12T16:49:35.055Z,98698.20
2022-12-12T16:50:38.524Z,98691.88
2022-12-12T16:51:41.601Z,98689.20
2022-12-12T16:52:44.149Z,98694.42
2022-12-12T16:53:46.734Z,98696.13
2022-12-12T16:54:53.613Z,98696.13
2022-12-12T16:55:54.430Z,98694.28
2022-12-12T16:56:58.258Z,98695.99
2022-12-12T16:58:00.869Z,98698.66
2022-12-12T16:59:03.868Z,98689.58
2022-12-12T17:00:08.514Z,98689.58
2022-12-12T17:01:10.798Z,98700.23
2022-12-12T17:02:21.667Z,98699.23
2022-12-12T17:03:25.231Z,98696.55
2022-12-12T17:04:27.588Z,98696.55
2022-12-12T17:05:29.844Z,98697.42
2022-12-12T17:06:32.026Z,98694.75
2022-12-12T17:07:34.368Z,98691.11
2022-12-12T17:08:37.571Z,98698.13
2022-12-12T17:09:40.735Z,98689.27
2022-12-12T17:10:45.227Z,98697.29
2022-12-12T17:11:48.276Z,98696.32
2022-12-12T17:12:54.323Z,98702.50
2022-12-12T17:13:56.477Z,98700.67
2022-12-12T17:14:58.823Z,98705.05
2022-12-12T17:16:01.552Z,98705.05
2022-12-12T17:17:05.338Z,98708.59
2022-12-12T17:18:08.035Z,98697.89
2022-12-12T17:19:12.218Z,98698.72
2022-12-12T17:20:15.036Z,98695.08
2022-12-12T17:21:18.235Z,98695.91
2022-12-12T17:22:20.837Z,98694.08
2022-12-12T17:23:30.628Z,98686.45
2022-12-12T17:24:33.629Z,98686.45
2022-12-12T17:25:36.917Z,98694.08
2022-12-12T17:26:40.595Z,98690.43
2022-12-12T17:27:42.768Z,98690.43
2022-12-12T17:28:44.883Z,98693.11
2022-12-12T17:29:48.926Z,98696.65
2022-12-12T17:30:52.399Z,98703.67
2022-12-12T17:31:55.194Z,98695.64
2022-12-12T17:34:19.365Z,98703.67
2022-12-12T17:35:21.573Z,98705.37
2022-12-12T17:36:23.677Z,98701.86
2022-12-12T17:37:27.163Z,98712.56
2022-12-12T17:38:30.543Z,98704.54
2022-12-12T17:39:33.120Z,98712.56
2022-12-12T17:40:35.833Z,98709.02
2022-12-12T17:41:38.152Z,98706.20
2022-12-12T17:42:41.164Z,98704.54
2022-12-12T17:43:43.879Z,98700.86
2022-12-12T17:44:45.959Z,98705.37
2022-12-12T17:45:57.043Z,98705.23
2022-12-12T17:46:59.512Z,98705.23
2022-12-12T17:48:01.599Z,98707.91
2022-12-12T17:49:03.697Z,98705.23
2022-12-12T17:50:07.428Z,98697.21
2022-12-12T17:51:10.848Z,98711.42
2022-12-12T17:52:17.519Z,98714.09
2022-12-12T17:53:20.652Z,98709.62
2022-12-12T17:54:22.803Z,98708.75
2022-12-12T17:55:54.626Z,98711.32
2022-12-12T17:56:30.083Z,98711.42
2022-12-12T17:57:34.853Z,98711.42
2022-12-12T17:58:39.940Z,98708.75
2022-12-12T17:59:42.073Z,98713.13
